Terminal Aerodrome Forecast
Issued by NWS

Home | Current Version | Previous Version | Text Only | Print | Product List | Glossary On
Versions: 1 2 3 4 5 6 7 8 9 10 11 12 13 14 15 16 17 18 19 20 21 22 23 24 25 26 27 28 29 30 31 32 33 34 35 36 37 38
000
FTUS41 KRNK 182347 CCA
TAFBCB
TAF COR
KBCB 182347Z 1900/1924 00000KT P6SM BKN060
     FM190500 00000KT 4SM BR BKN040
     FM190800 09003KT 5SM BR OVC030
     FM191000 09004KT 3SM -DZ BR BKN004 OVC013
     FM191500 11007KT P6SM OVC018=

USA.gov is the U.S. government's official web portal to all federal, state and local government web resources and services.